sensor_id;sensor_type;location;lat;lon;timestamp;pressure;altitude;pressure_sealevel;temperature
24278;BMP280;12394;42.692;23.314;2023-05-16T00:01:47;94712.69;;;14.58
24278;BMP280;12394;42.692;23.314;2023-05-16T00:04:13;94700.03;;;14.53
24278;BMP280;12394;42.692;23.314;2023-05-16T00:06:38;94694.53;;;14.47
24278;BMP280;12394;42.692;23.314;2023-05-16T00:09:04;94693.19;;;14.55
24278;BMP280;12394;42.692;23.314;2023-05-16T00:11:29;94681.25;;;14.38
24278;BMP280;12394;42.692;23.314;2023-05-16T00:13:54;94692.75;;;14.44
24278;BMP280;12394;42.692;23.314;2023-05-16T00:16:20;94696.75;;;14.49
24278;BMP280;12394;42.692;23.314;2023-05-16T00:18:46;94690.00;;;14.48
24278;BMP280;12394;42.692;23.314;2023-05-16T00:21:12;94688.53;;;14.47
24278;BMP280;12394;42.692;23.314;2023-05-16T00:23:37;94686.53;;;14.51
24278;BMP280;12394;42.692;23.314;2023-05-16T00:26:03;94690.97;;;14.54
24278;BMP280;12394;42.692;23.314;2023-05-16T00:28:28;94690.66;;;14.52
24278;BMP280;12394;42.692;23.314;2023-05-16T00:30:54;94681.13;;;14.42
24278;BMP280;12394;42.692;23.314;2023-05-16T00:33:20;94688.94;;;14.45
24278;BMP280;12394;42.692;23.314;2023-05-16T00:35:45;94688.03;;;14.52
24278;BMP280;12394;42.692;23.314;2023-05-16T00:38:11;94672.09;;;14.43
24278;BMP280;12394;42.692;23.314;2023-05-16T00:40:36;94679.72;;;14.53
24278;BMP280;12394;42.692;23.314;2023-05-16T00:43:02;94678.34;;;14.49
24278;BMP280;12394;42.692;23.314;2023-05-16T00:45:28;94665.81;;;14.53
24278;BMP280;12394;42.692;23.314;2023-05-16T00:47:53;94659.16;;;14.48
24278;BMP280;12394;42.692;23.314;2023-05-16T00:50:19;94658.53;;;14.44
24278;BMP280;12394;42.692;23.314;2023-05-16T00:52:44;94655.69;;;14.51
24278;BMP280;12394;42.692;23.314;2023-05-16T00:55:10;94652.00;;;14.49
24278;BMP280;12394;42.692;23.314;2023-05-16T00:57:36;94648.53;;;14.52
24278;BMP280;12394;42.692;23.314;2023-05-16T01:00:04;94643.38;;;14.48
24278;BMP280;12394;42.692;23.314;2023-05-16T01:02:31;94647.25;;;14.44
24278;BMP280;12394;42.692;23.314;2023-05-16T01:04:59;94651.69;;;14.47
24278;BMP280;12394;42.692;23.314;2023-05-16T01:07:24;94652.41;;;14.47
24278;BMP280;12394;42.692;23.314;2023-05-16T01:09:50;94650.53;;;14.48
24278;BMP280;12394;42.692;23.314;2023-05-16T01:15:09;94650.44;;;14.51
24278;BMP280;12394;42.692;23.314;2023-05-16T01:17:40;94648.53;;;14.52
24278;BMP280;12394;42.692;23.314;2023-05-16T01:22:51;94637.25;;;14.51
24278;BMP280;12394;42.692;23.314;2023-05-16T01:28:01;94636.13;;;14.52
24278;BMP280;12394;42.692;23.314;2023-05-16T01:30:32;94634.88;;;14.57
24278;BMP280;12394;42.692;23.314;2023-05-16T01:32:59;94625.16;;;14.54
24278;BMP280;12394;42.692;23.314;2023-05-16T01:35:24;94628.97;;;14.53
24278;BMP280;12394;42.692;23.314;2023-05-16T01:38:17;94625.25;;;14.50
24278;BMP280;12394;42.692;23.314;2023-05-16T01:40:58;94608.09;;;14.46
24278;BMP280;12394;42.692;23.314;2023-05-16T01:43:54;94609.78;;;14.40
24278;BMP280;12394;42.692;23.314;2023-05-16T01:46:26;94585.94;;;14.31
24278;BMP280;12394;42.692;23.314;2023-05-16T01:49:14;94607.56;;;14.38
24278;BMP280;12394;42.692;23.314;2023-05-16T01:51:53;94600.88;;;14.34
24278;BMP280;12394;42.692;23.314;2023-05-16T01:54:20;94605.81;;;14.32
24278;BMP280;12394;42.692;23.314;2023-05-16T01:56:53;94607.69;;;14.31
24278;BMP280;12394;42.692;23.314;2023-05-16T01:59:21;94594.22;;;14.29
24278;BMP280;12394;42.692;23.314;2023-05-16T02:01:48;94600.25;;;14.30
24278;BMP280;12394;42.692;23.314;2023-05-16T02:04:13;94599.91;;;14.27
24278;BMP280;12394;42.692;23.314;2023-05-16T02:06:40;94594.34;;;14.25
24278;BMP280;12394;42.692;23.314;2023-05-16T02:09:06;94598.41;;;14.26
24278;BMP280;12394;42.692;23.314;2023-05-16T02:11:32;94602.22;;;14.25
24278;BMP280;12394;42.692;23.314;2023-05-16T02:13:58;94604.03;;;14.29
24278;BMP280;12394;42.692;23.314;2023-05-16T02:16:23;94596.72;;;14.20
24278;BMP280;12394;42.692;23.314;2023-05-16T02:18:49;94588.75;;;14.23
24278;BMP280;12394;42.692;23.314;2023-05-16T02:21:14;94591.78;;;14.22
24278;BMP280;12394;42.692;23.314;2023-05-16T02:23:40;94593.38;;;14.19
24278;BMP280;12394;42.692;23.314;2023-05-16T02:26:05;94581.06;;;14.16
24278;BMP280;12394;42.692;23.314;2023-05-16T02:28:31;94579.56;;;14.15
24278;BMP280;12394;42.692;23.314;2023-05-16T02:30:57;94588.75;;;14.23
24278;BMP280;12394;42.692;23.314;2023-05-16T02:33:27;94587.19;;;14.26
24278;BMP280;12394;42.692;23.314;2023-05-16T02:35:53;94588.97;;;14.29
24278;BMP280;12394;42.692;23.314;2023-05-16T02:38:18;94596.69;;;14.36
24278;BMP280;12394;42.692;23.314;2023-05-16T02:40:46;94601.28;;;14.32
24278;BMP280;12394;42.692;23.314;2023-05-16T02:43:11;94600.47;;;14.35
24278;BMP280;12394;42.692;23.314;2023-05-16T02:45:36;94604.19;;;14.38
24278;BMP280;12394;42.692;23.314;2023-05-16T02:48:02;94596.22;;;14.25
24278;BMP280;12394;42.692;23.314;2023-05-16T02:50:27;94591.38;;;14.23
24278;BMP280;12394;42.692;23.314;2023-05-16T02:52:53;94590.72;;;14.19
24278;BMP280;12394;42.692;23.314;2023-05-16T02:55:18;94569.16;;;14.12
24278;BMP280;12394;42.692;23.314;2023-05-16T02:57:43;94578.56;;;14.25
24278;BMP280;12394;42.692;23.314;2023-05-16T03:02:48;94573.91;;;14.17
24278;BMP280;12394;42.692;23.314;2023-05-16T03:05:13;94578.97;;;14.24
24278;BMP280;12394;42.692;23.314;2023-05-16T03:07:38;94573.28;;;14.25
24278;BMP280;12394;42.692;23.314;2023-05-16T03:10:04;94580.84;;;14.23
24278;BMP280;12394;42.692;23.314;2023-05-16T03:12:30;94575.59;;;14.23
24278;BMP280;12394;42.692;23.314;2023-05-16T03:14:55;94555.47;;;14.17
24278;BMP280;12394;42.692;23.314;2023-05-16T03:17:21;94578.84;;;14.27
24278;BMP280;12394;42.692;23.314;2023-05-16T03:19:46;94573.59;;;14.27
24278;BMP280;12394;42.692;23.314;2023-05-16T03:22:12;94579.09;;;14.33
24278;BMP280;12394;42.692;23.314;2023-05-16T03:24:37;94574.16;;;14.35
24278;BMP280;12394;42.692;23.314;2023-05-16T03:27:03;94583.53;;;14.36
24278;BMP280;12394;42.692;23.314;2023-05-16T03:29:29;94576.44;;;14.33
24278;BMP280;12394;42.692;23.314;2023-05-16T03:31:55;94570.38;;;14.36
24278;BMP280;12394;42.692;23.314;2023-05-16T03:34:20;94580.50;;;14.38
24278;BMP280;12394;42.692;23.314;2023-05-16T03:36:49;94574.91;;;14.36
24278;BMP280;12394;42.692;23.314;2023-05-16T03:39:15;94573.97;;;14.42
24278;BMP280;12394;42.692;23.314;2023-05-16T03:41:41;94578.81;;;14.44
24278;BMP280;12394;42.692;23.314;2023-05-16T03:44:06;94567.56;;;14.43
24278;BMP280;12394;42.692;23.314;2023-05-16T03:46:32;94578.81;;;14.44
24278;BMP280;12394;42.692;23.314;2023-05-16T03:48:57;94583.56;;;14.49
24278;BMP280;12394;42.692;23.314;2023-05-16T03:51:23;94582.84;;;14.48
24278;BMP280;12394;42.692;23.314;2023-05-16T03:53:48;94575.88;;;14.42
24278;BMP280;12394;42.692;23.314;2023-05-16T03:56:13;94574.81;;;14.39
24278;BMP280;12394;42.692;23.314;2023-05-16T03:58:39;94561.41;;;14.34
24278;BMP280;12394;42.692;23.314;2023-05-16T04:01:04;94578.09;;;14.43
24278;BMP280;12394;42.692;23.314;2023-05-16T04:03:30;94576.50;;;14.46
24278;BMP280;12394;42.692;23.314;2023-05-16T04:05:58;94569.84;;;14.41
24278;BMP280;12394;42.692;23.314;2023-05-16T04:08:23;94560.06;;;14.42
24278;BMP280;12394;42.692;23.314;2023-05-16T04:10:50;94573.34;;;14.51
24278;BMP280;12394;42.692;23.314;2023-05-16T04:13:15;94580.41;;;14.54
24278;BMP280;12394;42.692;23.314;2023-05-16T04:15:40;94580.00;;;14.55
24278;BMP280;12394;42.692;23.314;2023-05-16T04:18:07;94573.69;;;14.53
24278;BMP280;12394;42.692;23.314;2023-05-16T04:20:33;94575.25;;;14.63
24278;BMP280;12394;42.692;23.314;2023-05-16T04:22:59;94581.59;;;14.65
24278;BMP280;12394;42.692;23.314;2023-05-16T04:25:24;94578.09;;;14.68
24278;BMP280;12394;42.692;23.314;2023-05-16T04:27:50;94582.97;;;14.70
24278;BMP280;12394;42.692;23.314;2023-05-16T04:30:16;94577.59;;;14.74
24278;BMP280;12394;42.692;23.314;2023-05-16T04:32:42;94573.47;;;14.73
24278;BMP280;12394;42.692;23.314;2023-05-16T04:35:07;94573.81;;;14.75
24278;BMP280;12394;42.692;23.314;2023-05-16T04:37:33;94559.47;;;14.76
24278;BMP280;12394;42.692;23.314;2023-05-16T04:39:59;94569.50;;;14.81
24278;BMP280;12394;42.692;23.314;2023-05-16T04:42:24;94572.94;;;14.78
24278;BMP280;12394;42.692;23.314;2023-05-16T04:44:51;94570.19;;;14.81
24278;BMP280;12394;42.692;23.314;2023-05-16T04:47:16;94549.13;;;14.81
24278;BMP280;12394;42.692;23.314;2023-05-16T04:49:42;94564.75;;;14.88
24278;BMP280;12394;42.692;23.314;2023-05-16T04:52:07;94570.97;;;14.94
24278;BMP280;12394;42.692;23.314;2023-05-16T04:54:33;94567.78;;;14.99
24278;BMP280;12394;42.692;23.314;2023-05-16T04:56:59;94565.69;;;14.94
24278;BMP280;12394;42.692;23.314;2023-05-16T04:59:25;94554.94;;;14.89
24278;BMP280;12394;42.692;23.314;2023-05-16T05:01:50;94560.72;;;14.96
24278;BMP280;12394;42.692;23.314;2023-05-16T05:04:16;94563.38;;;14.96
24278;BMP280;12394;42.692;23.314;2023-05-16T05:06:42;94565.16;;;14.99
24278;BMP280;12394;42.692;23.314;2023-05-16T05:09:08;94568.53;;;15.00
24278;BMP280;12394;42.692;23.314;2023-05-16T05:11:33;94568.09;;;15.01
24278;BMP280;12394;42.692;23.314;2023-05-16T05:13:59;94572.09;;;15.06
24278;BMP280;12394;42.692;23.314;2023-05-16T05:16:25;94587.50;;;15.07
24278;BMP280;12394;42.692;23.314;2023-05-16T05:18:50;94580.63;;;15.10
24278;BMP280;12394;42.692;23.314;2023-05-16T05:21:17;94582.22;;;15.07
24278;BMP280;12394;42.692;23.314;2023-05-16T05:23:44;94575.78;;;15.08
24278;BMP280;12394;42.692;23.314;2023-05-16T05:26:10;94577.47;;;15.15
24278;BMP280;12394;42.692;23.314;2023-05-16T05:28:36;94552.72;;;15.00
24278;BMP280;12394;42.692;23.314;2023-05-16T05:31:02;94566.53;;;15.17
24278;BMP280;12394;42.692;23.314;2023-05-16T05:33:29;94574.00;;;15.31
24278;BMP280;12394;42.692;23.314;2023-05-16T05:35:54;94567.66;;;15.28
24278;BMP280;12394;42.692;23.314;2023-05-16T05:38:20;94552.69;;;15.25
24278;BMP280;12394;42.692;23.314;2023-05-16T05:40:45;94562.25;;;15.32
24278;BMP280;12394;42.692;23.314;2023-05-16T05:43:11;94560.69;;;15.34
24278;BMP280;12394;42.692;23.314;2023-05-16T05:45:36;94550.69;;;15.29
24278;BMP280;12394;42.692;23.314;2023-05-16T05:48:02;94552.56;;;15.29
24278;BMP280;12394;42.692;23.314;2023-05-16T05:50:28;94549.00;;;15.23
24278;BMP280;12394;42.692;23.314;2023-05-16T05:52:54;94555.75;;;15.24
24278;BMP280;12394;42.692;23.314;2023-05-16T05:55:19;94540.25;;;15.13
24278;BMP280;12394;42.692;23.314;2023-05-16T05:57:45;94548.69;;;15.21
24278;BMP280;12394;42.692;23.314;2023-05-16T06:00:11;94551.00;;;15.19
24278;BMP280;12394;42.692;23.314;2023-05-16T06:02:36;94533.09;;;15.13
24278;BMP280;12394;42.692;23.314;2023-05-16T06:05:02;94550.59;;;15.20
24278;BMP280;12394;42.692;23.314;2023-05-16T06:07:27;94551.34;;;15.21
24278;BMP280;12394;42.692;23.314;2023-05-16T06:09:53;94549.63;;;15.27
24278;BMP280;12394;42.692;23.314;2023-05-16T06:12:18;94551.84;;;15.28
24278;BMP280;12394;42.692;23.314;2023-05-16T06:14:43;94548.91;;;15.26
24278;BMP280;12394;42.692;23.314;2023-05-16T06:17:09;94546.28;;;15.26
24278;BMP280;12394;42.692;23.314;2023-05-16T06:19:34;94559.00;;;15.28
24278;BMP280;12394;42.692;23.314;2023-05-16T06:21:59;94557.72;;;15.32
24278;BMP280;12394;42.692;23.314;2023-05-16T06:24:25;94557.31;;;15.34
24278;BMP280;12394;42.692;23.314;2023-05-16T06:26:50;94553.00;;;15.40
24278;BMP280;12394;42.692;23.314;2023-05-16T06:29:16;94541.19;;;15.32
24278;BMP280;12394;42.692;23.314;2023-05-16T06:31:42;94549.16;;;15.41
24278;BMP280;12394;42.692;23.314;2023-05-16T06:34:07;94561.41;;;15.47
24278;BMP280;12394;42.692;23.314;2023-05-16T06:36:33;94546.97;;;15.52
24278;BMP280;12394;42.692;23.314;2023-05-16T06:38:58;94542.13;;;15.72
24278;BMP280;12394;42.692;23.314;2023-05-16T06:41:24;94530.84;;;15.72
24278;BMP280;12394;42.692;23.314;2023-05-16T06:43:50;94535.09;;;15.69
24278;BMP280;12394;42.692;23.314;2023-05-16T06:46:16;94542.38;;;15.65
24278;BMP280;12394;42.692;23.314;2023-05-16T06:48:42;94534.59;;;15.62
24278;BMP280;12394;42.692;23.314;2023-05-16T06:51:07;94528.59;;;15.61
24278;BMP280;12394;42.692;23.314;2023-05-16T06:53:32;94529.19;;;15.65
24278;BMP280;12394;42.692;23.314;2023-05-16T06:55:58;94511.03;;;15.67
24278;BMP280;12394;42.692;23.314;2023-05-16T06:58:23;94514.84;;;15.66
24278;BMP280;12394;42.692;23.314;2023-05-16T07:00:52;94510.06;;;15.74
24278;BMP280;12394;42.692;23.314;2023-05-16T07:03:17;94511.09;;;15.76
24278;BMP280;12394;42.692;23.314;2023-05-16T07:05:43;94506.00;;;15.82
24278;BMP280;12394;42.692;23.314;2023-05-16T07:08:08;94524.66;;;15.87
24278;BMP280;12394;42.692;23.314;2023-05-16T07:10:37;94503.50;;;15.78
24278;BMP280;12394;42.692;23.314;2023-05-16T07:13:03;94506.63;;;15.86
24278;BMP280;12394;42.692;23.314;2023-05-16T07:15:29;94509.31;;;15.95
24278;BMP280;12394;42.692;23.314;2023-05-16T07:17:54;94500.38;;;15.92
24278;BMP280;12394;42.692;23.314;2023-05-16T07:20:21;94497.06;;;16.01
24278;BMP280;12394;42.692;23.314;2023-05-16T07:22:46;94507.81;;;16.07
24278;BMP280;12394;42.692;23.314;2023-05-16T07:25:11;94494.59;;;16.07
24278;BMP280;12394;42.692;23.314;2023-05-16T07:27:39;94493.44;;;16.08
24278;BMP280;12394;42.692;23.314;2023-05-16T07:30:10;94490.81;;;16.08
24278;BMP280;12394;42.692;23.314;2023-05-16T07:32:36;94495.81;;;16.15
24278;BMP280;12394;42.692;23.314;2023-05-16T07:35:02;94464.97;;;16.02
24278;BMP280;12394;42.692;23.314;2023-05-16T07:37:27;94499.09;;;16.28
24278;BMP280;12394;42.692;23.314;2023-05-16T07:39:53;94513.41;;;16.39
24278;BMP280;12394;42.692;23.314;2023-05-16T07:42:18;94523.28;;;16.48
24278;BMP280;12394;42.692;23.314;2023-05-16T07:44:43;94517.72;;;16.55
24278;BMP280;12394;42.692;23.314;2023-05-16T07:47:09;94523.31;;;16.57
24278;BMP280;12394;42.692;23.314;2023-05-16T07:49:34;94523.31;;;16.57
24278;BMP280;12394;42.692;23.314;2023-05-16T07:52:00;94524.81;;;16.67
24278;BMP280;12394;42.692;23.314;2023-05-16T07:54:25;94519.84;;;16.69
24278;BMP280;12394;42.692;23.314;2023-05-16T07:56:50;94502.72;;;16.74
24278;BMP280;12394;42.692;23.314;2023-05-16T07:59:16;94498.75;;;16.78
24278;BMP280;12394;42.692;23.314;2023-05-16T08:01:41;94489.91;;;16.72
24278;BMP280;12394;42.692;23.314;2023-05-16T08:04:07;94499.91;;;16.77
24278;BMP280;12394;42.692;23.314;2023-05-16T08:06:32;94502.72;;;16.83
24278;BMP280;12394;42.692;23.314;2023-05-16T08:08:58;94509.66;;;16.89
24278;BMP280;12394;42.692;23.314;2023-05-16T08:11:24;94477.66;;;16.87
24278;BMP280;12394;42.692;23.314;2023-05-16T08:13:51;94491.19;;;16.99
24278;BMP280;12394;42.692;23.314;2023-05-16T08:16:16;94482.06;;;17.00
24278;BMP280;12394;42.692;23.314;2023-05-16T08:18:42;94476.50;;;17.07
24278;BMP280;12394;42.692;23.314;2023-05-16T08:21:07;94448.88;;;16.89
24278;BMP280;12394;42.692;23.314;2023-05-16T08:23:33;94466.97;;;17.18
24278;BMP280;12394;42.692;23.314;2023-05-16T08:25:59;94472.44;;;17.33
24278;BMP280;12394;42.692;23.314;2023-05-16T08:28:24;94466.56;;;17.47
24278;BMP280;12394;42.692;23.314;2023-05-16T08:30:50;94459.78;;;17.46
24278;BMP280;12394;42.692;23.314;2023-05-16T08:33:15;94473.91;;;17.52
24278;BMP280;12394;42.692;23.314;2023-05-16T08:35:43;94486.09;;;17.50
24278;BMP280;12394;42.692;23.314;2023-05-16T08:38:09;94475.25;;;17.66
24278;BMP280;12394;42.692;23.314;2023-05-16T08:40:34;94476.41;;;17.65
24278;BMP280;12394;42.692;23.314;2023-05-16T08:43:00;94472.44;;;17.78
24278;BMP280;12394;42.692;23.314;2023-05-16T08:45:26;94476.09;;;17.90
24278;BMP280;12394;42.692;23.314;2023-05-16T08:47:53;94472.38;;;18.06
24278;BMP280;12394;42.692;23.314;2023-05-16T08:50:20;94475.19;;;18.11
24278;BMP280;12394;42.692;23.314;2023-05-16T08:52:47;94481.44;;;18.32
24278;BMP280;12394;42.692;23.314;2023-05-16T08:55:15;94488.91;;;18.43
24278;BMP280;12394;42.692;23.314;2023-05-16T08:57:44;94491.78;;;18.63
24278;BMP280;12394;42.692;23.314;2023-05-16T09:00:10;94494.81;;;18.80
24278;BMP280;12394;42.692;23.314;2023-05-16T09:02:40;94498.06;;;19.07
24278;BMP280;12394;42.692;23.314;2023-05-16T09:05:08;94491.13;;;19.10
24278;BMP280;12394;42.692;23.314;2023-05-16T09:07:35;94503.38;;;19.07
24278;BMP280;12394;42.692;23.314;2023-05-16T09:10:01;94487.28;;;19.11
24278;BMP280;12394;42.692;23.314;2023-05-16T09:12:26;94478.69;;;18.92
24278;BMP280;12394;42.692;23.314;2023-05-16T09:14:52;94482.31;;;19.04
24278;BMP280;12394;42.692;23.314;2023-05-16T09:17:17;94489.38;;;19.07
24278;BMP280;12394;42.692;23.314;2023-05-16T09:19:43;94495.97;;;19.12
24278;BMP280;12394;42.692;23.314;2023-05-16T09:22:11;94493.41;;;19.17
24278;BMP280;12394;42.692;23.314;2023-05-16T09:24:38;94505.25;;;19.31
24278;BMP280;12394;42.692;23.314;2023-05-16T09:27:12;94505.75;;;19.29
24278;BMP280;12394;42.692;23.314;2023-05-16T09:29:42;94500.13;;;19.27
24278;BMP280;12394;42.692;23.314;2023-05-16T09:32:17;94497.03;;;19.29
24278;BMP280;12394;42.692;23.314;2023-05-16T09:34:46;94494.78;;;19.36
24278;BMP280;12394;42.692;23.314;2023-05-16T09:37:17;94479.84;;;19.24
24278;BMP280;12394;42.692;23.314;2023-05-16T09:39:48;94486.66;;;19.16
24278;BMP280;12394;42.692;23.314;2023-05-16T09:42:14;94479.38;;;19.02
24278;BMP280;12394;42.692;23.314;2023-05-16T09:44:41;94479.38;;;19.02
24278;BMP280;12394;42.692;23.314;2023-05-16T09:47:10;94466.75;;;18.97
24278;BMP280;12394;42.692;23.314;2023-05-16T09:49:39;94473.84;;;18.91
24278;BMP280;12394;42.692;23.314;2023-05-16T09:52:05;94474.13;;;18.93
24278;BMP280;12394;42.692;23.314;2023-05-16T09:54:32;94466.75;;;18.97
24278;BMP280;12394;42.692;23.314;2023-05-16T09:56:58;94461.63;;;18.93
24278;BMP280;12394;42.692;23.314;2023-05-16T09:59:25;94455.59;;;18.93
24278;BMP280;12394;42.692;23.314;2023-05-16T10:01:52;94467.31;;;19.01
24278;BMP280;12394;42.692;23.314;2023-05-16T10:04:19;94449.53;;;18.92
24278;BMP280;12394;42.692;23.314;2023-05-16T10:06:45;94439.56;;;19.11
24278;BMP280;12394;42.692;23.314;2023-05-16T10:09:11;94452.69;;;19.29
24278;BMP280;12394;42.692;23.314;2023-05-16T10:11:41;94459.81;;;19.47
24278;BMP280;12394;42.692;23.314;2023-05-16T10:14:11;94470.00;;;19.39
24278;BMP280;12394;42.692;23.314;2023-05-16T10:16:40;94455.91;;;19.33
24278;BMP280;12394;42.692;23.314;2023-05-16T10:19:07;94474.28;;;19.37
24278;BMP280;12394;42.692;23.314;2023-05-16T10:21:33;94472.38;;;19.37
24278;BMP280;12394;42.692;23.314;2023-05-16T10:24:02;94474.19;;;19.31
24278;BMP280;12394;42.692;23.314;2023-05-16T10:26:31;94469.78;;;19.28
24278;BMP280;12394;42.692;23.314;2023-05-16T10:28:57;94485.06;;;19.33
24278;BMP280;12394;42.692;23.314;2023-05-16T10:31:22;94457.59;;;19.45
24278;BMP280;12394;42.692;23.314;2023-05-16T10:33:48;94462.00;;;19.48
24278;BMP280;12394;42.692;23.314;2023-05-16T10:36:15;94462.31;;;19.41
24278;BMP280;12394;42.692;23.314;2023-05-16T10:38:41;94454.25;;;19.36
24278;BMP280;12394;42.692;23.314;2023-05-16T10:41:09;94445.50;;;19.44
24278;BMP280;12394;42.692;23.314;2023-05-16T10:43:35;94434.56;;;19.51
24278;BMP280;12394;42.692;23.314;2023-05-16T10:46:07;94420.56;;;19.66
24278;BMP280;12394;42.692;23.314;2023-05-16T10:48:40;94392.84;;;19.96
24278;BMP280;12394;42.692;23.314;2023-05-16T10:53:46;94404.63;;;20.59
24278;BMP280;12394;42.692;23.314;2023-05-16T10:56:12;94413.63;;;20.62
24278;BMP280;12394;42.692;23.314;2023-05-16T11:16:52;94443.63;;;19.60
24278;BMP280;12394;42.692;23.314;2023-05-16T11:19:47;94444.06;;;19.58
24278;BMP280;12394;42.692;23.314;2023-05-16T11:25:02;94460.75;;;19.73
24278;BMP280;12394;42.692;23.314;2023-05-16T11:27:45;94467.91;;;19.96
24278;BMP280;12394;42.692;23.314;2023-05-16T11:30:17;94463.97;;;20.21
24278;BMP280;12394;42.692;23.314;2023-05-16T11:32:47;94472.31;;;20.29
24278;BMP280;12394;42.692;23.314;2023-05-16T11:35:14;94452.97;;;20.28
24278;BMP280;12394;42.692;23.314;2023-05-16T11:37:41;94444.19;;;20.22
24278;BMP280;12394;42.692;23.314;2023-05-16T11:40:08;94432.09;;;20.21
24278;BMP280;12394;42.692;23.314;2023-05-16T11:42:58;94432.16;;;20.27
24278;BMP280;12394;42.692;23.314;2023-05-16T11:45:23;94435.22;;;20.34
24278;BMP280;12394;42.692;23.314;2023-05-16T11:47:50;94445.34;;;20.51
24278;BMP280;12394;42.692;23.314;2023-05-16T11:50:18;94429.69;;;20.53
24278;BMP280;12394;42.692;23.314;2023-05-16T11:52:45;94428.75;;;20.56
24278;BMP280;12394;42.692;23.314;2023-05-16T11:55:11;94420.94;;;20.67
24278;BMP280;12394;42.692;23.314;2023-05-16T11:57:57;94437.09;;;21.04
24278;BMP280;12394;42.692;23.314;2023-05-16T12:00:25;94437.28;;;21.15
24278;BMP280;12394;42.692;23.314;2023-05-16T12:02:52;94416.75;;;21.41
24278;BMP280;12394;42.692;23.314;2023-05-16T12:05:18;94411.59;;;21.58
24278;BMP280;12394;42.692;23.314;2023-05-16T12:07:45;94418.41;;;21.85
24278;BMP280;12394;42.692;23.314;2023-05-16T12:10:13;94419.53;;;22.35
24278;BMP280;12394;42.692;23.314;2023-05-16T12:12:40;94401.00;;;22.52
24278;BMP280;12394;42.692;23.314;2023-05-16T12:15:07;94388.78;;;22.77
24278;BMP280;12394;42.692;23.314;2023-05-16T12:17:38;94403.22;;;23.13
24278;BMP280;12394;42.692;23.314;2023-05-16T12:20:05;94398.69;;;23.35
24278;BMP280;12394;42.692;23.314;2023-05-16T12:22:31;94405.31;;;23.51
24278;BMP280;12394;42.692;23.314;2023-05-16T12:25:30;94398.06;;;23.68
24278;BMP280;12394;42.692;23.314;2023-05-16T12:28:00;94392.50;;;23.94
24278;BMP280;12394;42.692;23.314;2023-05-16T12:30:27;94392.50;;;23.94
24278;BMP280;12394;42.692;23.314;2023-05-16T12:32:59;94381.81;;;23.88
24278;BMP280;12394;42.692;23.314;2023-05-16T12:35:30;94397.81;;;23.72
24278;BMP280;12394;42.692;23.314;2023-05-16T12:37:56;94404.34;;;23.54
24278;BMP280;12394;42.692;23.314;2023-05-16T12:40:21;94391.84;;;23.18
24278;BMP280;12394;42.692;23.314;2023-05-16T12:42:52;94393.22;;;22.91
24278;BMP280;12394;42.692;23.314;2023-05-16T12:45:21;94394.66;;;22.44
24278;BMP280;12394;42.692;23.314;2023-05-16T12:47:48;94391.63;;;22.31
24278;BMP280;12394;42.692;23.314;2023-05-16T12:50:15;94376.97;;;22.09
24278;BMP280;12394;42.692;23.314;2023-05-16T12:52:52;94393.47;;;22.13
24278;BMP280;12394;42.692;23.314;2023-05-16T12:55:20;94391.88;;;21.96
24278;BMP280;12394;42.692;23.314;2023-05-16T12:57:47;94388.78;;;21.77
24278;BMP280;12394;42.692;23.314;2023-05-16T13:00:15;94380.34;;;21.53
24278;BMP280;12394;42.692;23.314;2023-05-16T13:02:43;94403.47;;;21.41
24278;BMP280;12394;42.692;23.314;2023-05-16T13:05:08;94402.50;;;21.18
24278;BMP280;12394;42.692;23.314;2023-05-16T13:07:35;94395.84;;;20.88
24278;BMP280;12394;42.692;23.314;2023-05-16T13:10:00;94406.72;;;20.90
24278;BMP280;12394;42.692;23.314;2023-05-16T13:12:26;94405.34;;;20.74
24278;BMP280;12394;42.692;23.314;2023-05-16T13:14:52;94390.63;;;20.59
24278;BMP280;12394;42.692;23.314;2023-05-16T13:17:18;94401.53;;;20.61
24278;BMP280;12394;42.692;23.314;2023-05-16T13:19:43;94408.19;;;20.71
24278;BMP280;12394;42.692;23.314;2023-05-16T13:22:09;94406.28;;;20.71
24278;BMP280;12394;42.692;23.314;2023-05-16T13:24:35;94406.97;;;20.72
24278;BMP280;12394;42.692;23.314;2023-05-16T13:27:00;94391.34;;;20.59
24278;BMP280;12394;42.692;23.314;2023-05-16T13:29:25;94414.69;;;20.70
24278;BMP280;12394;42.692;23.314;2023-05-16T13:31:51;94404.13;;;20.75
24278;BMP280;12394;42.692;23.314;2023-05-16T13:34:16;94400.34;;;20.82
24278;BMP280;12394;42.692;23.314;2023-05-16T13:36:42;94409.84;;;20.68
24278;BMP280;12394;42.692;23.314;2023-05-16T13:39:07;94405.38;;;20.60
24278;BMP280;12394;42.692;23.314;2023-05-16T13:41:33;94394.03;;;20.45
24278;BMP280;12394;42.692;23.314;2023-05-16T13:44:02;94405.56;;;20.56
24278;BMP280;12394;42.692;23.314;2023-05-16T13:46:27;94413.63;;;20.62
24278;BMP280;12394;42.692;23.314;2023-05-16T13:48:53;94407.50;;;20.56
24278;BMP280;12394;42.692;23.314;2023-05-16T13:51:18;94421.97;;;20.55
24278;BMP280;12394;42.692;23.314;2023-05-16T13:53:43;94424.00;;;20.45
24278;BMP280;12394;42.692;23.314;2023-05-16T13:56:09;94427.41;;;20.46
24278;BMP280;12394;42.692;23.314;2023-05-16T13:58:35;94428.34;;;20.42
24278;BMP280;12394;42.692;23.314;2023-05-16T14:01:00;94430.00;;;20.25
24278;BMP280;12394;42.692;23.314;2023-05-16T14:03:25;94434.00;;;20.35
24278;BMP280;12394;42.692;23.314;2023-05-16T14:05:51;94442.28;;;20.37
24278;BMP280;12394;42.692;23.314;2023-05-16T14:08:16;94446.00;;;20.46
24278;BMP280;12394;42.692;23.314;2023-05-16T14:10:42;94430.81;;;20.31
24278;BMP280;12394;42.692;23.314;2023-05-16T14:13:07;94457.66;;;20.48
24278;BMP280;12394;42.692;23.314;2023-05-16T14:15:32;94452.91;;;20.37
24278;BMP280;12394;42.692;23.314;2023-05-16T14:17:58;94452.63;;;20.21
24278;BMP280;12394;42.692;23.314;2023-05-16T14:20:26;94440.91;;;19.98
24278;BMP280;12394;42.692;23.314;2023-05-16T14:22:51;94439.34;;;19.91
24278;BMP280;12394;42.692;23.314;2023-05-16T14:25:17;94436.34;;;19.98
24278;BMP280;12394;42.692;23.314;2023-05-16T14:27:44;94436.94;;;20.08
24278;BMP280;12394;42.692;23.314;2023-05-16T14:30:10;94443.09;;;20.14